sensor_id;sensor_type;location;lat;lon;timestamp;P1;durP1;ratioP1;P2;durP2;ratioP2
58360;SDS011;44164;44.954;10.068;2022-07-23T00:01:39;3.00;;;2.00;;
58360;SDS011;44164;44.954;10.068;2022-07-23T00:04:06;3.05;;;2.38;;
58360;SDS011;44164;44.954;10.068;2022-07-23T00:06:33;3.25;;;2.17;;
58360;SDS011;44164;44.954;10.068;2022-07-23T00:08:59;3.30;;;2.60;;
58360;SDS011;44164;44.954;10.068;2022-07-23T00:11:25;3.78;;;2.50;;
58360;SDS011;44164;44.954;10.068;2022-07-23T00:13:51;3.40;;;2.60;;
58360;SDS011;44164;44.954;10.068;2022-07-23T00:16:17;3.67;;;2.20;;
58360;SDS011;44164;44.954;10.068;2022-07-23T00:18:43;3.03;;;2.00;;
58360;SDS011;44164;44.954;10.068;2022-07-23T00:21:09;4.38;;;2.30;;
58360;SDS011;44164;44.954;10.068;2022-07-23T00:23:35;2.92;;;2.30;;
58360;SDS011;44164;44.954;10.068;2022-07-23T00:26:02;2.83;;;2.28;;
58360;SDS011;44164;44.954;10.068;2022-07-23T00:28:28;4.90;;;2.47;;
58360;SDS011;44164;44.954;10.068;2022-07-23T00:30:54;5.32;;;2.15;;
58360;SDS011;44164;44.954;10.068;2022-07-23T00:33:20;3.10;;;2.58;;
58360;SDS011;44164;44.954;10.068;2022-07-23T00:35:47;4.88;;;2.50;;
58360;SDS011;44164;44.954;10.068;2022-07-23T00:38:13;2.70;;;2.10;;
58360;SDS011;44164;44.954;10.068;2022-07-23T00:40:39;3.47;;;2.40;;
58360;SDS011;44164;44.954;10.068;2022-07-23T00:43:06;4.10;;;2.40;;
58360;SDS011;44164;44.954;10.068;2022-07-23T00:45:32;3.30;;;2.45;;
58360;SDS011;44164;44.954;10.068;2022-07-23T00:47:59;3.75;;;2.42;;
58360;SDS011;44164;44.954;10.068;2022-07-23T00:50:25;3.58;;;2.85;;
58360;SDS011;44164;44.954;10.068;2022-07-23T00:52:52;3.58;;;2.70;;
58360;SDS011;44164;44.954;10.068;2022-07-23T00:55:19;2.45;;;1.85;;
58360;SDS011;44164;44.954;10.068;2022-07-23T00:57:45;4.13;;;2.50;;
58360;SDS011;44164;44.954;10.068;2022-07-23T01:00:12;3.97;;;2.50;;
58360;SDS011;44164;44.954;10.068;2022-07-23T01:02:40;3.60;;;2.67;;
58360;SDS011;44164;44.954;10.068;2022-07-23T01:05:06;3.43;;;2.50;;
58360;SDS011;44164;44.954;10.068;2022-07-23T01:07:33;6.15;;;2.45;;
58360;SDS011;44164;44.954;10.068;2022-07-23T01:10:00;3.72;;;2.60;;
58360;SDS011;44164;44.954;10.068;2022-07-23T01:12:26;3.13;;;2.60;;
58360;SDS011;44164;44.954;10.068;2022-07-23T01:14:55;3.53;;;2.35;;
58360;SDS011;44164;44.954;10.068;2022-07-23T01:17:21;4.20;;;2.80;;
58360;SDS011;44164;44.954;10.068;2022-07-23T01:19:48;4.15;;;2.95;;
58360;SDS011;44164;44.954;10.068;2022-07-23T01:22:14;4.22;;;2.63;;
58360;SDS011;44164;44.954;10.068;2022-07-23T01:24:42;2.72;;;2.40;;
58360;SDS011;44164;44.954;10.068;2022-07-23T01:27:09;3.28;;;2.50;;
58360;SDS011;44164;44.954;10.068;2022-07-23T01:32:08;3.15;;;2.33;;
58360;SDS011;44164;44.954;10.068;2022-07-23T01:34:34;4.53;;;2.78;;
58360;SDS011;44164;44.954;10.068;2022-07-23T01:37:01;3.40;;;2.30;;
58360;SDS011;44164;44.954;10.068;2022-07-23T01:39:28;3.40;;;2.50;;
58360;SDS011;44164;44.954;10.068;2022-07-23T01:41:54;3.70;;;2.60;;
58360;SDS011;44164;44.954;10.068;2022-07-23T01:44:21;4.15;;;2.70;;
58360;SDS011;44164;44.954;10.068;2022-07-23T01:46:47;3.22;;;2.67;;
58360;SDS011;44164;44.954;10.068;2022-07-23T01:49:14;4.07;;;2.77;;
58360;SDS011;44164;44.954;10.068;2022-07-23T01:51:59;3.20;;;2.50;;
58360;SDS011;44164;44.954;10.068;2022-07-23T01:56:54;4.22;;;2.47;;
58360;SDS011;44164;44.954;10.068;2022-07-23T01:59:20;4.53;;;3.30;;
58360;SDS011;44164;44.954;10.068;2022-07-23T02:01:47;4.20;;;2.63;;
58360;SDS011;44164;44.954;10.068;2022-07-23T02:04:13;3.03;;;2.30;;
58360;SDS011;44164;44.954;10.068;2022-07-23T02:06:39;3.72;;;2.80;;
58360;SDS011;44164;44.954;10.068;2022-07-23T02:09:05;3.53;;;2.55;;
58360;SDS011;44164;44.954;10.068;2022-07-23T02:11:31;3.47;;;2.30;;
58360;SDS011;44164;44.954;10.068;2022-07-23T02:13:57;3.75;;;3.00;;
58360;SDS011;44164;44.954;10.068;2022-07-23T02:16:24;4.28;;;2.70;;
58360;SDS011;44164;44.954;10.068;2022-07-23T02:18:50;2.80;;;2.40;;
58360;SDS011;44164;44.954;10.068;2022-07-23T02:21:16;3.35;;;2.35;;
58360;SDS011;44164;44.954;10.068;2022-07-23T02:23:42;3.78;;;2.70;;
58360;SDS011;44164;44.954;10.068;2022-07-23T02:26:08;2.80;;;2.42;;
58360;SDS011;44164;44.954;10.068;2022-07-23T02:28:36;3.90;;;3.05;;
58360;SDS011;44164;44.954;10.068;2022-07-23T02:31:02;3.55;;;2.50;;
58360;SDS011;44164;44.954;10.068;2022-07-23T02:33:29;3.15;;;2.35;;
58360;SDS011;44164;44.954;10.068;2022-07-23T02:35:55;3.80;;;2.50;;
58360;SDS011;44164;44.954;10.068;2022-07-23T02:38:22;4.22;;;2.90;;
58360;SDS011;44164;44.954;10.068;2022-07-23T02:40:48;3.53;;;2.55;;
58360;SDS011;44164;44.954;10.068;2022-07-23T02:43:15;3.28;;;2.55;;
58360;SDS011;44164;44.954;10.068;2022-07-23T02:45:42;3.70;;;2.83;;
58360;SDS011;44164;44.954;10.068;2022-07-23T02:48:09;3.65;;;2.47;;
58360;SDS011;44164;44.954;10.068;2022-07-23T02:50:38;3.03;;;2.72;;
58360;SDS011;44164;44.954;10.068;2022-07-23T02:53:05;3.20;;;2.60;;
58360;SDS011;44164;44.954;10.068;2022-07-23T02:55:31;3.40;;;2.72;;
58360;SDS011;44164;44.954;10.068;2022-07-23T02:58:00;3.20;;;2.80;;
58360;SDS011;44164;44.954;10.068;2022-07-23T03:00:27;3.33;;;2.58;;
58360;SDS011;44164;44.954;10.068;2022-07-23T03:02:53;3.08;;;2.72;;
58360;SDS011;44164;44.954;10.068;2022-07-23T03:05:20;3.63;;;2.90;;
58360;SDS011;44164;44.954;10.068;2022-07-23T03:07:46;3.13;;;2.40;;
58360;SDS011;44164;44.954;10.068;2022-07-23T03:10:12;3.83;;;2.22;;
58360;SDS011;44164;44.954;10.068;2022-07-23T03:12:38;4.38;;;3.25;;
58360;SDS011;44164;44.954;10.068;2022-07-23T03:15:04;3.63;;;2.35;;
58360;SDS011;44164;44.954;10.068;2022-07-23T03:17:31;3.53;;;2.65;;
58360;SDS011;44164;44.954;10.068;2022-07-23T03:19:57;3.45;;;2.40;;
58360;SDS011;44164;44.954;10.068;2022-07-23T03:22:23;2.95;;;2.38;;
58360;SDS011;44164;44.954;10.068;2022-07-23T03:24:49;3.25;;;2.60;;
58360;SDS011;44164;44.954;10.068;2022-07-23T03:27:29;3.20;;;2.50;;
58360;SDS011;44164;44.954;10.068;2022-07-23T03:29:57;3.40;;;2.65;;
58360;SDS011;44164;44.954;10.068;2022-07-23T03:32:24;4.97;;;2.38;;
58360;SDS011;44164;44.954;10.068;2022-07-23T03:34:51;2.78;;;2.35;;
58360;SDS011;44164;44.954;10.068;2022-07-23T03:37:18;3.60;;;2.53;;
58360;SDS011;44164;44.954;10.068;2022-07-23T03:42:12;3.45;;;2.70;;
58360;SDS011;44164;44.954;10.068;2022-07-23T03:44:38;3.38;;;2.97;;
58360;SDS011;44164;44.954;10.068;2022-07-23T03:47:05;2.83;;;2.13;;
58360;SDS011;44164;44.954;10.068;2022-07-23T03:49:32;4.07;;;2.58;;
58360;SDS011;44164;44.954;10.068;2022-07-23T03:51:58;4.47;;;2.97;;
58360;SDS011;44164;44.954;10.068;2022-07-23T03:54:25;3.05;;;2.47;;
58360;SDS011;44164;44.954;10.068;2022-07-23T03:56:51;3.08;;;2.33;;
58360;SDS011;44164;44.954;10.068;2022-07-23T03:59:17;3.97;;;2.80;;
58360;SDS011;44164;44.954;10.068;2022-07-23T04:01:44;3.80;;;3.17;;
58360;SDS011;44164;44.954;10.068;2022-07-23T04:04:11;3.15;;;2.53;;
58360;SDS011;44164;44.954;10.068;2022-07-23T04:06:39;2.88;;;2.53;;
58360;SDS011;44164;44.954;10.068;2022-07-23T04:09:05;4.65;;;2.83;;
58360;SDS011;44164;44.954;10.068;2022-07-23T04:11:32;3.23;;;2.53;;
58360;SDS011;44164;44.954;10.068;2022-07-23T04:14:00;3.20;;;2.90;;
58360;SDS011;44164;44.954;10.068;2022-07-23T04:16:26;3.55;;;2.85;;
58360;SDS011;44164;44.954;10.068;2022-07-23T04:18:54;3.08;;;2.67;;
58360;SDS011;44164;44.954;10.068;2022-07-23T04:21:21;3.10;;;2.53;;
58360;SDS011;44164;44.954;10.068;2022-07-23T04:23:48;3.22;;;2.55;;
58360;SDS011;44164;44.954;10.068;2022-07-23T04:26:15;3.00;;;2.70;;
58360;SDS011;44164;44.954;10.068;2022-07-23T04:28:41;3.50;;;2.40;;
58360;SDS011;44164;44.954;10.068;2022-07-23T04:31:07;3.47;;;2.83;;
58360;SDS011;44164;44.954;10.068;2022-07-23T04:33:35;4.40;;;2.95;;
58360;SDS011;44164;44.954;10.068;2022-07-23T04:36:05;4.00;;;2.97;;
58360;SDS011;44164;44.954;10.068;2022-07-23T04:38:31;5.10;;;2.45;;
58360;SDS011;44164;44.954;10.068;2022-07-23T04:41:02;2.65;;;2.33;;
58360;SDS011;44164;44.954;10.068;2022-07-23T04:43:28;5.53;;;2.70;;
58360;SDS011;44164;44.954;10.068;2022-07-23T04:45:54;3.70;;;2.60;;
58360;SDS011;44164;44.954;10.068;2022-07-23T04:48:20;3.92;;;3.00;;
58360;SDS011;44164;44.954;10.068;2022-07-23T04:50:52;3.72;;;2.83;;
58360;SDS011;44164;44.954;10.068;2022-07-23T04:53:23;2.53;;;2.22;;
58360;SDS011;44164;44.954;10.068;2022-07-23T04:55:51;3.08;;;2.60;;
58360;SDS011;44164;44.954;10.068;2022-07-23T04:58:17;3.38;;;2.70;;
58360;SDS011;44164;44.954;10.068;2022-07-23T05:00:44;3.05;;;2.55;;
58360;SDS011;44164;44.954;10.068;2022-07-23T05:03:10;3.80;;;2.65;;
58360;SDS011;44164;44.954;10.068;2022-07-23T05:05:37;3.85;;;2.80;;
58360;SDS011;44164;44.954;10.068;2022-07-23T05:08:13;3.35;;;2.72;;
58360;SDS011;44164;44.954;10.068;2022-07-23T05:10:41;3.90;;;2.83;;
58360;SDS011;44164;44.954;10.068;2022-07-23T05:13:07;3.63;;;2.90;;
58360;SDS011;44164;44.954;10.068;2022-07-23T05:15:33;3.45;;;2.80;;
58360;SDS011;44164;44.954;10.068;2022-07-23T05:17:59;3.22;;;2.42;;
58360;SDS011;44164;44.954;10.068;2022-07-23T05:20:27;3.67;;;2.83;;
58360;SDS011;44164;44.954;10.068;2022-07-23T05:22:53;4.30;;;2.97;;
58360;SDS011;44164;44.954;10.068;2022-07-23T05:25:19;4.40;;;2.70;;
58360;SDS011;44164;44.954;10.068;2022-07-23T05:27:46;3.47;;;2.72;;
58360;SDS011;44164;44.954;10.068;2022-07-23T05:30:12;3.70;;;2.88;;
58360;SDS011;44164;44.954;10.068;2022-07-23T05:32:41;12.88;;;4.45;;
58360;SDS011;44164;44.954;10.068;2022-07-23T05:35:12;16.45;;;6.03;;
58360;SDS011;44164;44.954;10.068;2022-07-23T05:37:44;17.33;;;6.70;;
58360;SDS011;44164;44.954;10.068;2022-07-23T05:40:10;14.32;;;5.78;;
58360;SDS011;44164;44.954;10.068;2022-07-23T05:42:38;15.37;;;6.07;;
58360;SDS011;44164;44.954;10.068;2022-07-23T05:47:44;7.57;;;5.65;;
58360;SDS011;44164;44.954;10.068;2022-07-23T05:50:20;7.50;;;4.72;;
58360;SDS011;44164;44.954;10.068;2022-07-23T05:52:52;12.98;;;5.53;;
58360;SDS011;44164;44.954;10.068;2022-07-23T05:55:27;16.50;;;6.50;;
58360;SDS011;44164;44.954;10.068;2022-07-23T05:57:58;11.68;;;5.53;;
58360;SDS011;44164;44.954;10.068;2022-07-23T06:00:26;11.82;;;6.80;;
58360;SDS011;44164;44.954;10.068;2022-07-23T06:02:53;10.43;;;5.87;;
58360;SDS011;44164;44.954;10.068;2022-07-23T06:05:19;10.73;;;6.25;;
58360;SDS011;44164;44.954;10.068;2022-07-23T06:07:46;11.27;;;5.90;;
58360;SDS011;44164;44.954;10.068;2022-07-23T06:12:40;15.90;;;6.05;;
58360;SDS011;44164;44.954;10.068;2022-07-23T06:15:07;21.75;;;6.82;;
58360;SDS011;44164;44.954;10.068;2022-07-23T06:17:34;22.98;;;6.28;;
58360;SDS011;44164;44.954;10.068;2022-07-23T06:20:02;11.75;;;6.55;;
58360;SDS011;44164;44.954;10.068;2022-07-23T06:22:29;16.30;;;6.00;;
58360;SDS011;44164;44.954;10.068;2022-07-23T06:24:55;9.85;;;6.45;;
58360;SDS011;44164;44.954;10.068;2022-07-23T06:27:21;14.45;;;6.13;;
58360;SDS011;44164;44.954;10.068;2022-07-23T06:29:48;17.67;;;6.43;;
58360;SDS011;44164;44.954;10.068;2022-07-23T06:32:14;15.45;;;6.70;;
58360;SDS011;44164;44.954;10.068;2022-07-23T06:34:40;13.25;;;6.28;;
58360;SDS011;44164;44.954;10.068;2022-07-23T06:37:06;12.02;;;7.07;;
58360;SDS011;44164;44.954;10.068;2022-07-23T06:39:32;13.45;;;6.90;;
58360;SDS011;44164;44.954;10.068;2022-07-23T06:41:59;9.38;;;6.18;;
58360;SDS011;44164;44.954;10.068;2022-07-23T06:44:36;11.75;;;6.90;;
58360;SDS011;44164;44.954;10.068;2022-07-23T06:47:02;11.07;;;6.45;;
58360;SDS011;44164;44.954;10.068;2022-07-23T06:49:28;10.95;;;6.25;;
58360;SDS011;44164;44.954;10.068;2022-07-23T06:51:57;8.73;;;6.88;;
58360;SDS011;44164;44.954;10.068;2022-07-23T06:54:23;11.23;;;6.85;;
58360;SDS011;44164;44.954;10.068;2022-07-23T06:56:50;10.63;;;6.63;;
58360;SDS011;44164;44.954;10.068;2022-07-23T06:59:16;9.43;;;7.10;;
58360;SDS011;44164;44.954;10.068;2022-07-23T07:01:42;11.48;;;6.70;;
58360;SDS011;44164;44.954;10.068;2022-07-23T07:04:08;10.40;;;6.88;;
58360;SDS011;44164;44.954;10.068;2022-07-23T07:06:34;10.27;;;6.60;;
58360;SDS011;44164;44.954;10.068;2022-07-23T07:09:01;13.40;;;6.85;;
58360;SDS011;44164;44.954;10.068;2022-07-23T07:11:27;12.15;;;7.45;;
58360;SDS011;44164;44.954;10.068;2022-07-23T07:13:53;9.63;;;6.50;;
58360;SDS011;44164;44.954;10.068;2022-07-23T07:16:19;12.32;;;6.78;;
58360;SDS011;44164;44.954;10.068;2022-07-23T07:18:45;11.65;;;7.35;;
58360;SDS011;44164;44.954;10.068;2022-07-23T07:21:11;11.70;;;7.60;;
58360;SDS011;44164;44.954;10.068;2022-07-23T07:23:38;11.98;;;9.02;;
58360;SDS011;44164;44.954;10.068;2022-07-23T07:26:04;12.13;;;8.02;;
58360;SDS011;44164;44.954;10.068;2022-07-23T07:28:30;14.95;;;8.50;;
58360;SDS011;44164;44.954;10.068;2022-07-23T07:30:56;11.95;;;8.00;;
58360;SDS011;44164;44.954;10.068;2022-07-23T07:33:22;13.25;;;7.93;;
58360;SDS011;44164;44.954;10.068;2022-07-23T07:35:48;10.25;;;8.82;;
58360;SDS011;44164;44.954;10.068;2022-07-23T07:38:14;11.57;;;7.90;;
58360;SDS011;44164;44.954;10.068;2022-07-23T07:40:40;15.60;;;7.93;;
58360;SDS011;44164;44.954;10.068;2022-07-23T07:43:07;13.38;;;7.55;;
58360;SDS011;44164;44.954;10.068;2022-07-23T07:45:33;11.55;;;7.93;;
58360;SDS011;44164;44.954;10.068;2022-07-23T07:47:59;13.05;;;8.18;;
58360;SDS011;44164;44.954;10.068;2022-07-23T07:50:25;12.80;;;8.02;;
58360;SDS011;44164;44.954;10.068;2022-07-23T07:52:52;16.33;;;8.43;;
58360;SDS011;44164;44.954;10.068;2022-07-23T07:55:18;14.43;;;9.05;;
58360;SDS011;44164;44.954;10.068;2022-07-23T07:57:44;10.68;;;8.13;;
58360;SDS011;44164;44.954;10.068;2022-07-23T08:00:10;10.85;;;8.57;;
58360;SDS011;44164;44.954;10.068;2022-07-23T08:02:47;11.27;;;8.40;;
58360;SDS011;44164;44.954;10.068;2022-07-23T08:05:14;11.63;;;9.07;;
58360;SDS011;44164;44.954;10.068;2022-07-23T08:07:44;9.90;;;8.88;;
58360;SDS011;44164;44.954;10.068;2022-07-23T08:10:10;13.05;;;8.65;;
58360;SDS011;44164;44.954;10.068;2022-07-23T08:12:43;11.32;;;9.13;;
58360;SDS011;44164;44.954;10.068;2022-07-23T08:15:11;12.85;;;8.30;;
58360;SDS011;44164;44.954;10.068;2022-07-23T08:17:38;17.92;;;8.60;;
58360;SDS011;44164;44.954;10.068;2022-07-23T08:20:05;9.23;;;7.57;;
58360;SDS011;44164;44.954;10.068;2022-07-23T08:25:13;14.32;;;8.23;;
58360;SDS011;44164;44.954;10.068;2022-07-23T08:27:40;10.38;;;8.20;;
58360;SDS011;44164;44.954;10.068;2022-07-23T08:30:06;9.43;;;8.40;;
58360;SDS011;44164;44.954;10.068;2022-07-23T08:32:33;11.38;;;8.48;;
58360;SDS011;44164;44.954;10.068;2022-07-23T08:34:59;11.20;;;9.23;;
58360;SDS011;44164;44.954;10.068;2022-07-23T08:37:25;10.98;;;8.20;;
58360;SDS011;44164;44.954;10.068;2022-07-23T08:39:51;11.13;;;8.52;;
58360;SDS011;44164;44.954;10.068;2022-07-23T08:42:17;9.98;;;8.27;;
58360;SDS011;44164;44.954;10.068;2022-07-23T08:44:45;14.20;;;8.85;;
58360;SDS011;44164;44.954;10.068;2022-07-23T08:47:12;10.25;;;8.73;;
58360;SDS011;44164;44.954;10.068;2022-07-23T08:49:38;12.40;;;8.73;;
58360;SDS011;44164;44.954;10.068;2022-07-23T08:52:05;10.77;;;8.52;;
58360;SDS011;44164;44.954;10.068;2022-07-23T08:54:31;11.65;;;9.02;;
58360;SDS011;44164;44.954;10.068;2022-07-23T08:56:58;10.93;;;8.90;;
58360;SDS011;44164;44.954;10.068;2022-07-23T08:59:24;10.38;;;8.13;;
58360;SDS011;44164;44.954;10.068;2022-07-23T09:01:52;15.50;;;8.57;;
58360;SDS011;44164;44.954;10.068;2022-07-23T09:04:18;14.93;;;9.77;;
58360;SDS011;44164;44.954;10.068;2022-07-23T09:06:44;11.27;;;8.43;;
58360;SDS011;44164;44.954;10.068;2022-07-23T09:09:17;10.00;;;9.05;;
58360;SDS011;44164;44.954;10.068;2022-07-23T09:11:48;11.35;;;8.35;;
58360;SDS011;44164;44.954;10.068;2022-07-23T09:14:14;9.73;;;8.50;;
58360;SDS011;44164;44.954;10.068;2022-07-23T09:16:40;11.15;;;8.88;;
58360;SDS011;44164;44.954;10.068;2022-07-23T09:19:06;10.43;;;7.85;;
58360;SDS011;44164;44.954;10.068;2022-07-23T09:21:33;13.65;;;9.45;;
58360;SDS011;44164;44.954;10.068;2022-07-23T09:24:02;10.40;;;8.20;;
58360;SDS011;44164;44.954;10.068;2022-07-23T09:29:10;9.63;;;8.63;;
58360;SDS011;44164;44.954;10.068;2022-07-23T09:31:45;9.70;;;8.77;;
58360;SDS011;44164;44.954;10.068;2022-07-23T09:34:16;11.02;;;8.13;;
58360;SDS011;44164;44.954;10.068;2022-07-23T09:36:44;9.25;;;8.35;;
58360;SDS011;44164;44.954;10.068;2022-07-23T09:39:11;14.00;;;8.82;;
58360;SDS011;44164;44.954;10.068;2022-07-23T09:41:39;11.50;;;9.00;;
58360;SDS011;44164;44.954;10.068;2022-07-23T09:44:07;9.35;;;8.35;;
58360;SDS011;44164;44.954;10.068;2022-07-23T09:46:36;10.70;;;9.13;;
58360;SDS011;44164;44.954;10.068;2022-07-23T09:49:09;8.60;;;7.50;;
58360;SDS011;44164;44.954;10.068;2022-07-23T09:51:44;10.80;;;8.80;;
58360;SDS011;44164;44.954;10.068;2022-07-23T09:56:51;20.17;;;8.15;;
58360;SDS011;44164;44.954;10.068;2022-07-23T09:59:17;12.00;;;8.65;;
58360;SDS011;44164;44.954;10.068;2022-07-23T10:01:44;10.85;;;8.07;;
58360;SDS011;44164;44.954;10.068;2022-07-23T10:04:11;10.65;;;8.55;;
58360;SDS011;44164;44.954;10.068;2022-07-23T10:06:57;9.02;;;8.02;;
58360;SDS011;44164;44.954;10.068;2022-07-23T10:09:43;9.18;;;8.27;;
58360;SDS011;44164;44.954;10.068;2022-07-23T10:12:46;10.48;;;8.35;;
58360;SDS011;44164;44.954;10.068;2022-07-23T10:15:21;11.75;;;8.48;;
58360;SDS011;44164;44.954;10.068;2022-07-23T10:17:48;10.65;;;8.35;;
58360;SDS011;44164;44.954;10.068;2022-07-23T10:20:14;10.88;;;8.32;;
58360;SDS011;44164;44.954;10.068;2022-07-23T10:22:42;10.90;;;8.00;;
58360;SDS011;44164;44.954;10.068;2022-07-23T10:31:06;10.63;;;8.07;;
58360;SDS011;44164;44.954;10.068;2022-07-23T10:34:41;11.88;;;8.57;;
58360;SDS011;44164;44.954;10.068;2022-07-23T10:36:54;9.57;;;8.15;;
58360;SDS011;44164;44.954;10.068;2022-07-23T10:39:26;10.20;;;8.77;;
58360;SDS011;44164;44.954;10.068;2022-07-23T10:42:10;9.40;;;8.00;;
58360;SDS011;44164;44.954;10.068;2022-07-23T10:47:08;10.55;;;8.52;;
58360;SDS011;44164;44.954;10.068;2022-07-23T10:49:59;9.85;;;8.85;;
58360;SDS011;44164;44.954;10.068;2022-07-23T10:58:02;9.15;;;8.20;;
58360;SDS011;44164;44.954;10.068;2022-07-23T11:00:33;10.52;;;7.93;;
58360;SDS011;44164;44.954;10.068;2022-07-23T11:03:01;8.65;;;7.43;;
58360;SDS011;44164;44.954;10.068;2022-07-23T11:05:41;10.30;;;8.00;;
58360;SDS011;44164;44.954;10.068;2022-07-23T11:08:10;9.63;;;7.43;;
58360;SDS011;44164;44.954;10.068;2022-07-23T11:11:23;10.93;;;7.93;;
58360;SDS011;44164;44.954;10.068;2022-07-23T11:16:14;10.13;;;6.80;;
58360;SDS011;44164;44.954;10.068;2022-07-23T11:23:58;10.88;;;7.70;;
58360;SDS011;44164;44.954;10.068;2022-07-23T11:31:57;8.57;;;6.80;;
58360;SDS011;44164;44.954;10.068;2022-07-23T11:34:43;14.15;;;7.28;;
58360;SDS011;44164;44.954;10.068;2022-07-23T11:37:26;12.10;;;8.07;;
58360;SDS011;44164;44.954;10.068;2022-07-23T11:39:54;9.65;;;7.07;;
58360;SDS011;44164;44.954;10.068;2022-07-23T11:42:21;11.03;;;7.17;;
58360;SDS011;44164;44.954;10.068;2022-07-23T11:44:49;9.85;;;6.95;;
58360;SDS011;44164;44.954;10.068;2022-07-23T11:47:20;7.97;;;7.17;;
58360;SDS011;44164;44.954;10.068;2022-07-23T11:49:52;8.90;;;7.00;;
58360;SDS011;44164;44.954;10.068;2022-07-23T11:52:22;7.93;;;6.68;;
58360;SDS011;44164;44.954;10.068;2022-07-23T11:54:51;10.13;;;7.70;;
58360;SDS011;44164;44.954;10.068;2022-07-23T11:57:19;9.05;;;7.00;;
58360;SDS011;44164;44.954;10.068;2022-07-23T11:59:47;8.52;;;6.72;;
58360;SDS011;44164;44.954;10.068;2022-07-23T12:02:16;7.90;;;7.13;;
58360;SDS011;44164;44.954;10.068;2022-07-23T12:04:43;11.15;;;6.93;;
58360;SDS011;44164;44.954;10.068;2022-07-23T12:09:58;9.00;;;6.63;;
58360;SDS011;44164;44.954;10.068;2022-07-23T12:12:49;9.85;;;6.75;;
58360;SDS011;44164;44.954;10.068;2022-07-23T12:15:18;9.38;;;6.32;;
58360;SDS011;44164;44.954;10.068;2022-07-23T12:17:45;7.03;;;6.32;;
58360;SDS011;44164;44.954;10.068;2022-07-23T12:20:14;6.88;;;6.18;;
58360;SDS011;44164;44.954;10.068;2022-07-23T12:22:44;7.00;;;6.30;;
58360;SDS011;44164;44.954;10.068;2022-07-23T12:25:16;7.15;;;6.45;;
58360;SDS011;44164;44.954;10.068;2022-07-23T12:27:44;8.32;;;6.55;;
58360;SDS011;44164;44.954;10.068;2022-07-23T12:30:17;7.68;;;6.75;;
58360;SDS011;44164;44.954;10.068;2022-07-23T12:32:48;7.22;;;6.20;;
58360;SDS011;44164;44.954;10.068;2022-07-23T12:35:15;8.82;;;5.72;;
58360;SDS011;44164;44.954;10.068;2022-07-23T12:37:42;7.67;;;6.20;;
58360;SDS011;44164;44.954;10.068;2022-07-23T12:42:47;8.38;;;5.75;;
58360;SDS011;44164;44.954;10.068;2022-07-23T12:45:15;9.48;;;6.40;;
58360;SDS011;44164;44.954;10.068;2022-07-23T12:47:55;6.38;;;5.65;;
58360;SDS011;44164;44.954;10.068;2022-07-23T12:53:08;7.70;;;5.72;;
58360;SDS011;44164;44.954;10.068;2022-07-23T12:55:36;8.75;;;5.70;;
58360;SDS011;44164;44.954;10.068;2022-07-23T12:58:25;8.13;;;5.73;;
58360;SDS011;44164;44.954;10.068;2022-07-23T13:01:00;11.15;;;6.03;;
58360;SDS011;44164;44.954;10.068;2022-07-23T13:03:34;12.60;;;6.05;;
58360;SDS011;44164;44.954;10.068;2022-07-23T13:06:03;7.75;;;6.15;;
58360;SDS011;44164;44.954;10.068;2022-07-23T13:08:30;7.65;;;6.43;;
58360;SDS011;44164;44.954;10.068;2022-07-23T13:10:59;6.25;;;5.50;;
58360;SDS011;44164;44.954;10.068;2022-07-23T13:13:26;8.95;;;5.93;;
58360;SDS011;44164;44.954;10.068;2022-07-23T13:15:54;7.20;;;5.85;;
58360;SDS011;44164;44.954;10.068;2022-07-23T13:18:21;7.30;;;5.80;;
58360;SDS011;44164;44.954;10.068;2022-07-23T13:20:47;8.57;;;6.20;;
58360;SDS011;44164;44.954;10.068;2022-07-23T13:23:14;8.38;;;6.07;;
58360;SDS011;44164;44.954;10.068;2022-07-23T13:25:41;6.68;;;5.97;;
58360;SDS011;44164;44.954;10.068;2022-07-23T13:28:07;7.85;;;5.30;;
58360;SDS011;44164;44.954;10.068;2022-07-23T13:30:33;6.55;;;5.85;;
58360;SDS011;44164;44.954;10.068;2022-07-23T13:33:01;6.95;;;6.18;;
58360;SDS011;44164;44.954;10.068;2022-07-23T13:35:28;6.63;;;6.03;;
58360;SDS011;44164;44.954;10.068;2022-07-23T13:37:54;6.57;;;5.97;;
58360;SDS011;44164;44.954;10.068;2022-07-23T13:40:20;8.57;;;5.53;;
58360;SDS011;44164;44.954;10.068;2022-07-23T13:42:47;6.15;;;5.50;;
58360;SDS011;44164;44.954;10.068;2022-07-23T13:45:13;9.48;;;5.65;;
58360;SDS011;44164;44.954;10.068;2022-07-23T13:47:40;8.07;;;5.95;;
58360;SDS011;44164;44.954;10.068;2022-07-23T13:50:06;7.57;;;5.50;;
58360;SDS011;44164;44.954;10.068;2022-07-23T13:52:32;6.45;;;5.70;;
58360;SDS011;44164;44.954;10.068;2022-07-23T13:55:00;5.75;;;5.20;;
58360;SDS011;44164;44.954;10.068;2022-07-23T13:57:27;7.90;;;5.45;;
58360;SDS011;44164;44.954;10.068;2022-07-23T13:59:53;10.38;;;5.30;;
58360;SDS011;44164;44.954;10.068;2022-07-23T14:02:20;5.78;;;5.28;;
58360;SDS011;44164;44.954;10.068;2022-07-23T14:04:46;9.30;;;6.00;;
58360;SDS011;44164;44.954;10.068;2022-07-23T14:07:12;6.35;;;5.47;;
58360;SDS011;44164;44.954;10.068;2022-07-23T14:09:38;6.80;;;5.45;;
58360;SDS011;44164;44.954;10.068;2022-07-23T14:12:04;10.00;;;5.18;;
58360;SDS011;44164;44.954;10.068;2022-07-23T14:14:31;6.10;;;5.43;;
58360;SDS011;44164;44.954;10.068;2022-07-23T14:16:58;6.55;;;5.65;;
58360;SDS011;44164;44.954;10.068;2022-07-23T14:19:24;8.25;;;5.72;;
58360;SDS011;44164;44.954;10.068;2022-07-23T14:21:50;9.85;;;6.03;;
58360;SDS011;44164;44.954;10.068;2022-07-23T14:24:16;9.82;;;5.57;;
58360;SDS011;44164;44.954;10.068;2022-07-23T14:26:43;6.82;;;5.00;;
58360;SDS011;44164;44.954;10.068;2022-07-23T14:29:09;5.65;;;4.82;;
58360;SDS011;44164;44.954;10.068;2022-07-23T14:31:35;5.18;;;4.65;;
58360;SDS011;44164;44.954;10.068;2022-07-23T14:34:02;5.65;;;5.13;;
58360;SDS011;44164;44.954;10.068;2022-07-23T14:36:28;6.15;;;5.47;;
58360;SDS011;44164;44.954;10.068;2022-07-23T14:38:54;6.85;;;5.95;;
58360;SDS011;44164;44.954;10.068;2022-07-23T14:41:20;6.75;;;4.85;;
58360;SDS011;44164;44.954;10.068;2022-07-23T14:43:46;7.40;;;5.10;;
58360;SDS011;44164;44.954;10.068;2022-07-23T14:46:13;7.18;;;4.97;;
58360;SDS011;44164;44.954;10.068;2022-07-23T14:48:39;7.10;;;5.53;;
58360;SDS011;44164;44.954;10.068;2022-07-23T14:51:05;8.15;;;5.13;;
58360;SDS011;44164;44.954;10.068;2022-07-23T14:53:31;5.68;;;5.10;;
58360;SDS011;44164;44.954;10.068;2022-07-23T14:55:57;6.10;;;5.53;;
58360;SDS011;44164;44.954;10.068;2022-07-23T14:58:23;7.07;;;5.25;;
58360;SDS011;44164;44.954;10.068;2022-07-23T15:00:50;7.75;;;5.25;;
58360;SDS011;44164;44.954;10.068;2022-07-23T15:03:16;6.13;;;4.93;;
58360;SDS011;44164;44.954;10.068;2022-07-23T15:05:42;6.40;;;5.15;;
58360;SDS011;44164;44.954;10.068;2022-07-23T15:08:08;6.63;;;4.55;;
58360;SDS011;44164;44.954;10.068;2022-07-23T15:10:35;5.55;;;5.05;;
58360;SDS011;44164;44.954;10.068;2022-07-23T15:13:01;5.78;;;5.15;;
58360;SDS011;44164;44.954;10.068;2022-07-23T15:15:27;6.70;;;4.93;;
58360;SDS011;44164;44.954;10.068;2022-07-23T15:17:53;6.50;;;5.18;;
58360;SDS011;44164;44.954;10.068;2022-07-23T15:20:19;5.93;;;5.30;;
58360;SDS011;44164;44.954;10.068;2022-07-23T15:22:45;5.82;;;5.28;;
58360;SDS011;44164;44.954;10.068;2022-07-23T15:27:39;6.28;;;5.07;;
58360;SDS011;44164;44.954;10.068;2022-07-23T15:30:06;6.25;;;5.40;;
58360;SDS011;44164;44.954;10.068;2022-07-23T15:32:32;5.70;;;5.05;;
58360;SDS011;44164;44.954;10.068;2022-07-23T15:34:58;7.60;;;5.25;;